Milvauchia, WI

01:14 AM CDT die 22o September, anno 2014 (GMT -0500)
Inner Harbor / KK River / Harbor View | Change Station
CLOSE
Current Station
Personal Weather Stations
Location: Milwaukee, WI
Elevation: 600 ft
Nearby Weather Stations

Elev 600 ft 43.02 °N, 87.90 °W | Updated 54 seconds ago

Serena
Serena
48.0 °F
Feels Like 43 °F
N
12.0
Ventus Variabilis Ventus from Magis Aquilo quam Zephyrus
Gusts 12.0 mph

Hodie
High -- | Low -- °F
--% Chance of Precip.
Yesterday
High -- | Low -- °F
Precip. -- in
6:38 AM 6:48 PM
Waning Crescent, 4% visible
Pressio 30.19 in
Visibilitas 10.0 milia passuum
Clouds Serena
Frigus Venti 43 °F
Frigus in quo Ros apparet 42 °F
Umor 78%
Rainfall -999.00 in
Snow Depth Not available.
UV 0 out of 12
Pollen 3.80 out of 12
Ozone Good
PM2.5 Good
Flu Activity Not available.
METAR KMKE 220552Z 32006KT 10SM CLR 09/05 A3018 RMK AO2 SLP221 T00890050 10128 20089 401720089 53013

More Conditions Fewer Conditions

Pressio 30.19 in
Visibilitas 10.0 milia passuum
Clouds Serena
Frigus Venti 43 °F
Frigus in quo Ros apparet 42 °F
Umor 78%
Rainfall -999.00 in
Snow Depth Not available.
UV 0 out of 12
Pollen 3.80 out of 12
Ozone Good
PM2.5 Good
Flu Activity Not available.
METAR KMKE 220552Z 32006KT 10SM CLR 09/05 A3018 RMK AO2 SLP221 T00890050 10128 20089 401720089 53013

More Conditions Fewer Conditions

10-Day Weather Forecast

Almanac

Astronomy

Sep. 22, 2014 Rise Set
Actual Time 6:38 AM CDT 6:48 PM CDT
Civil Twilight 6:10 AM CDT 7:17 PM CDT
Nautical Twilight 5:37 AM CDT 7:50 PM CDT
Astronomical Twilight 5:03 AM CDT 8:24 PM CDT
Moon 5:05 AM CDT 5:57 PM CDT
Length Of Visible Light 13h 06m
Length of Day
12h 10m
Tomorrow will be 2m 54s shorter.
Waning Crescent, 4% of the Moon is Illuminated
Hodie
Waning Crescent
Sep 24
New
Oct 1
First Quarter
Oct 8
Full
Oct 15
Last Quarter

Today's Extremes

State Highs State Lows

Community

WunderPhotos

Upload Photos

1,755,392 photos uploaded!

Nearby

Air Quality

  Air Quality AQ Index Pollutant
Yesterday Good
PM10
Yesterday Good
OZONE
Current Good
PM2.5
Current Good
OZONE
Die Solis Good
OZONE
Die Solis Good
PM2.5
Die Lunae Good
OZONE
Die Lunae Good
PM2.5

Snow Depth

Station Depth Elevation
No new snow has been reported.

Earthquake Activity

City Distance Mag. Time & Date
No recent earthquake activity has been reported nearby.
Minimum magnitude displayed is 2.5.

Coastal Water Temperatures

Locus Calor
No Stations Reporting

Nearby Weather Stations